Time;durP1;ratioP1;P1;durP2;ratioP2;P2;SDS_P1;SDS_P2;PMS_P1;PMS_P2;Temp;Humidity;BMP_temperature;BMP_pressure;BME280_temperature;BME280_humidity;BME280_pressure;Samples;Min_cycle;Max_cycle;Signal;HPM_P1;HPM_P2
2022/12/18 00:00:44;;;;;;;43.80;15.52;;;;;;;0.50;59.31;99950.56;4335371;33;20110;-83
2022/12/18 00:03:09;;;;;;;40.58;14.48;;;;;;;0.03;60.54;99949.44;4334396;33;20109;-83
2022/12/18 00:05:35;;;;;;;41.28;14.35;;;;;;;0.22;60.20;99962.53;4322047;33;20393;-83
2022/12/18 00:08:01;;;;;;;37.75;14.70;;;;;;;0.08;59.91;99958.13;4335267;33;20096;-83
2022/12/18 00:10:27;;;;;;;36.55;14.80;;;;;;;-0.03;60.51;99964.94;4335287;33;20119;-84
2022/12/18 00:12:53;;;;;;;38.75;14.25;;;;;;;0.21;59.67;99973.75;4335508;33;20159;-84
2022/12/18 00:15:18;;;;;;;40.15;14.75;;;;;;;0.46;59.02;99969.56;4335397;33;20096;-84
2022/12/18 00:17:44;;;;;;;40.15;14.02;;;;;;;0.24;59.55;99985.00;4322176;33;20108;-84
2022/12/18 00:20:10;;;;;;;41.65;13.95;;;;;;;-0.42;61.42;99990.53;4335385;33;20381;-84
2022/12/18 00:22:35;;;;;;;41.47;14.25;;;;;;;-0.78;61.97;99998.78;4322057;33;20091;-84
2022/12/18 00:25:00;;;;;;;38.60;12.93;;;;;;;-0.44;61.13;100007.78;4321971;33;20124;-84
2022/12/18 00:27:26;;;;;;;39.55;13.20;;;;;;;-0.15;60.63;100014.06;4335411;33;20088;-84
2022/12/18 00:29:51;;;;;;;42.50;13.18;;;;;;;-0.78;62.07;100019.47;4335431;33;20114;-84
2022/12/18 00:32:17;;;;;;;42.17;13.95;;;;;;;-0.23;60.61;100014.00;4335270;33;20106;-84
2022/12/18 00:34:42;;;;;;;43.38;15.60;;;;;;;0.01;59.84;100013.34;4335026;33;20449;-84
2022/12/18 00:37:07;;;;;;;36.95;13.73;;;;;;;-0.20;60.44;100014.00;4335158;33;20167;-84
2022/12/18 00:39:33;;;;;;;39.78;13.30;;;;;;;0.04;59.46;100017.66;4334985;33;20128;-84
2022/12/18 00:45:03;;;;;;;35.22;11.85;;;;;;;-0.43;61.04;100024.16;4312056;33;20449;-83
2022/12/18 00:47:28;;;;;;;35.65;12.43;;;;;;;0.02;59.63;100024.56;4291633;33;20192;-83
2022/12/18 00:49:53;;;;;;;36.80;13.07;;;;;;;-0.12;60.20;100021.84;4303704;33;20528;-83
2022/12/18 00:52:19;;;;;;;39.95;13.62;;;;;;;-0.67;61.49;100032.56;4303404;33;20108;-83
2022/12/18 00:54:44;;;;;;;36.08;13.30;;;;;;;0.10;59.26;100033.28;4303703;33;20151;-83
2022/12/18 00:57:10;;;;;;;36.72;14.02;;;;;;;-0.32;60.02;100034.63;4303428;33;20129;-83
2022/12/18 00:59:35;;;;;;;40.35;13.43;;;;;;;-0.15;60.39;100033.06;4303676;33;20104;-83
2022/12/18 01:02:01;;;;;;;36.35;13.75;;;;;;;-0.03;59.91;100037.47;4303506;33;20178;-83
2022/12/18 01:04:26;;;;;;;39.75;13.70;;;;;;;0.03;59.60;100050.47;4303920;33;20124;-83
2022/12/18 01:06:51;;;;;;;36.47;12.25;;;;;;;0.16;58.70;100054.91;4315897;33;20424;-83
2022/12/18 01:09:17;;;;;;;36.45;12.85;;;;;;;0.31;58.38;100048.97;4303826;33;20141;-83
2022/12/18 01:11:42;;;;;;;37.05;13.23;;;;;;;0.18;58.55;100052.34;4303766;33;20104;-83
2022/12/18 01:14:08;;;;;;;43.30;15.02;;;;;;;-0.01;59.59;100059.09;4303199;33;20111;-82
2022/12/18 01:16:33;;;;;;;37.25;13.20;;;;;;;-0.23;60.21;100051.13;4329275;33;20463;-82
2022/12/18 01:18:59;;;;;;;42.25;14.63;;;;;;;0.14;59.20;100058.34;4321796;33;20092;-83
2022/12/18 01:21:24;;;;;;;42.67;14.43;;;;;;;0.22;59.18;100061.00;4321656;33;20523;-83
2022/12/18 01:23:54;;;;;;;45.55;14.73;;;;;;;0.10;59.24;100062.62;4335089;33;20092;-83
2022/12/18 01:26:19;;;;;;;34.83;13.75;;;;;;;0.14;59.03;100063.53;4334987;33;20388;-82
2022/12/18 01:28:45;;;;;;;37.45;13.55;;;;;;;-0.05;59.64;100060.78;4334942;33;20100;-83
2022/12/18 01:31:22;;;;;;;42.00;14.50;;;;;;;-0.09;59.89;100064.19;4334884;33;20345;-83
2022/12/18 01:33:51;;;;;;;38.72;13.80;;;;;;;-0.30;60.47;100062.25;4321374;33;20135;-82
2022/12/18 01:36:22;;;;;;;37.35;12.02;;;;;;;-0.67;61.53;100071.37;4321350;33;20156;-81
2022/12/18 01:38:49;;;;;;;36.17;12.50;;;;;;;0.03;59.67;100066.03;4334736;33;20092;-81
2022/12/18 01:41:16;;;;;;;33.50;11.68;;;;;;;0.12;59.62;100073.88;4321317;33;20503;-81
2022/12/18 01:43:54;;;;;;;36.60;12.43;;;;;;;-0.44;60.82;100080.25;4321236;33;20388;-82
2022/12/18 01:46:24;;;;;;;33.28;13.07;;;;;;;-0.39;60.62;100080.28;4321309;33;20116;-82
2022/12/18 01:48:55;;;;;;;35.90;12.77;;;;;;;0.19;59.14;100083.44;4321554;33;20087;-82
2022/12/18 01:51:21;;;;;;;32.95;12.25;;;;;;;0.45;58.49;100087.97;4334618;33;20067;-82
2022/12/18 01:53:47;;;;;;;35.50;13.20;;;;;;;0.70;57.64;100083.81;4320879;33;20376;-82
2022/12/18 01:56:18;;;;;;;32.58;12.23;;;;;;;0.74;57.53;100085.56;4321293;33;20181;-82
2022/12/18 01:58:54;;;;;;;34.95;12.65;;;;;;;0.75;57.56;100074.34;4321331;33;20080;-82
2022/12/18 02:01:22;;;;;;;39.58;13.55;;;;;;;0.72;57.57;100078.63;4321234;33;20083;-82
2022/12/18 02:03:48;;;;;;;34.10;13.13;;;;;;;0.76;57.28;100082.97;4321104;33;20403;-81
2022/12/18 02:06:19;;;;;;;37.33;13.05;;;;;;;0.33;58.54;100087.87;4334415;33;20139;-81
2022/12/18 02:09:08;;;;;;;34.90;13.27;;;;;;;0.67;57.72;100082.91;4334342;33;20110;-81
2022/12/18 02:11:39;;;;;;;;;;;;;;;0.73;57.12;100090.72;4321343;33;20132;-81
2022/12/18 02:14:13;;;;;;;34.17;12.60;;;;;;;0.61;57.44;100099.31;4334274;33;19979;-81
2022/12/18 02:17:00;;;;;;;36.33;13.65;;;;;;;0.39;57.64;100099.16;4334276;33;20230;-83
2022/12/18 02:19:53;;;;;;;35.92;12.75;;;;;;;0.03;58.90;100110.06;4334087;33;20114;-82
2022/12/18 02:22:33;;;;;;;35.17;11.85;;;;;;;0.58;57.58;100109.66;4334370;33;20146;-82
2022/12/18 02:25:23;;;;;;;34.03;11.80;;;;;;;0.81;56.95;100106.34;4334374;33;20751;-83
2022/12/18 02:27:49;;;;;;;38.08;12.70;;;;;;;0.92;56.78;100107.28;4336347;33;20436;-82
2022/12/18 02:30:15;;;;;;;38.40;13.93;;;;;;;0.83;56.97;100108.09;4322470;33;20107;-81
2022/12/18 02:32:44;;;;;;;36.75;13.93;;;;;;;0.25;58.54;100118.03;4334937;33;20174;-81
2022/12/18 02:35:15;;;;;;;34.50;12.50;;;;;;;0.50;58.07;100121.69;4335027;33;20134;-82
2022/12/18 02:37:42;;;;;;;33.28;12.60;;;;;;;0.64;57.64;100125.28;4322861;33;20170;-81
2022/12/18 02:40:08;;;;;;;32.67;11.70;;;;;;;0.81;57.17;100119.31;4335044;33;20087;-81
2022/12/18 02:42:34;;;;;;;35.85;14.05;;;;;;;0.90;56.95;100130.62;4322479;33;20084;-82
2022/12/18 02:44:59;;;;;;;35.83;12.68;;;;;;;1.01;56.78;100125.50;4322323;33;20144;-81
2022/12/18 02:47:29;;;;;;;36.13;11.88;;;;;;;0.74;57.17;100131.38;4336166;33;20149;-81
2022/12/18 02:50:17;;;;;;;36.42;12.75;;;;;;;1.03;56.51;100121.19;4322628;33;20096;-81
2022/12/18 02:53:06;;;;;;;39.15;12.93;;;;;;;1.10;56.28;100127.25;4322473;33;20088;-81
2022/12/18 02:55:58;;;;;;;34.30;12.20;;;;;;;1.11;56.41;100127.28;4322382;33;20456;-82
2022/12/18 02:58:32;;;;;;;35.72;12.80;;;;;;;1.02;56.32;100129.81;4334737;33;20119;-81
2022/12/18 03:01:08;;;;;;;35.15;13.30;;;;;;;1.05;56.33;100142.81;4335687;33;20219;-81
2022/12/18 03:04:04;;;;;;;30.92;11.48;;;;;;;0.52;57.19;100149.37;4335883;33;20474;-81
2022/12/18 03:06:32;;;;;;;35.63;12.37;;;;;;;0.92;56.40;100148.78;4322685;33;20118;-81
2022/12/18 03:09:06;;;;;;;32.92;11.50;;;;;;;1.10;55.91;100148.91;4322340;33;20101;-81
2022/12/18 03:14:20;;;;;;;33.08;11.20;;;;;;;1.26;55.60;100152.47;4324356;33;20151;-80
2022/12/18 03:16:47;;;;;;;33.73;12.47;;;;;;;1.17;55.77;100160.19;4322547;33;20167;-80
2022/12/18 03:19:18;;;;;;;36.72;12.32;;;;;;;1.21;55.78;100159.34;4335744;33;20194;-80
2022/12/18 03:21:53;;;;;;;37.03;12.27;;;;;;;0.85;56.17;100162.56;4335804;33;20211;-80
2022/12/18 03:24:20;;;;;;;33.28;11.50;;;;;;;1.15;55.83;100161.91;4335615;33;20472;-81
2022/12/18 03:26:50;;;;;;;36.28;12.57;;;;;;;1.16;55.92;100159.31;4322164;33;20439;-81
2022/12/18 03:29:25;;;;;;;32.42;11.20;;;;;;;1.01;56.08;100164.44;4335688;33;20119;-81
2022/12/18 03:31:56;;;;;;;34.10;12.02;;;;;;;1.16;55.71;100174.03;4335699;33;20087;-81
2022/12/18 03:34:26;;;;;;;32.72;12.48;;;;;;;1.10;56.09;100171.38;4322250;33;20159;-80
2022/12/18 03:36:52;;;;;;;30.20;11.10;;;;;;;1.27;55.75;100184.47;4322001;33;20774;-82
2022/12/18 03:39:19;;;;;;;32.55;11.35;;;;;;;1.40;55.43;100188.00;4322200;33;20130;-81
2022/12/18 03:41:52;;;;;;;31.75;11.68;;;;;;;1.45;55.30;100191.47;4322137;33;20540;-81
2022/12/18 03:44:37;;;;;;;33.75;11.32;;;;;;;1.44;55.34;100190.63;4322148;33;20154;-83
2022/12/18 03:47:11;;;;;;;30.48;11.25;;;;;;;1.37;55.49;100196.63;4335510;33;20103;-84
2022/12/18 03:49:43;;;;;;;29.55;10.65;;;;;;;1.41;55.36;100194.91;4322108;33;20492;-83
2022/12/18 03:52:18;;;;;;;28.83;10.02;;;;;;;1.45;55.23;100199.25;4335346;33;20108;-83
2022/12/18 03:54:45;;;;;;;32.20;11.63;;;;;;;1.47;55.15;100190.66;4335486;33;20135;-83
2022/12/18 03:57:16;;;;;;;28.20;10.90;;;;;;;1.49;55.09;100188.91;4335139;33;20504;-81
2022/12/18 03:59:44;;;;;;;33.92;10.43;;;;;;;1.48;55.23;100194.09;4322410;33;20158;-81
2022/12/18 04:02:09;;;;;;;34.25;10.27;;;;;;;1.36;55.38;100187.97;4334431;33;20083;-82
2022/12/18 04:04:38;;;;;;;30.35;11.32;;;;;;;1.37;55.31;100194.94;4322272;33;20115;-83
2022/12/18 04:07:04;;;;;;;28.35;9.57;;;;;;;1.41;55.11;100203.59;4322266;33;20130;-82
2022/12/18 04:09:30;;;;;;;25.02;9.05;;;;;;;1.37;54.76;100200.13;4334400;33;20104;-81
2022/12/18 04:11:55;;;;;;;27.25;9.88;;;;;;;1.44;54.66;100197.56;4322076;33;20114;-84
2022/12/18 04:14:21;;;;;;;27.55;9.55;;;;;;;1.12;55.24;100208.59;4335492;33;20370;-83
2022/12/18 04:16:46;;;;;;;25.10;9.02;;;;;;;1.27;54.96;100202.63;4335531;33;20115;-83
2022/12/18 04:19:12;;;;;;;26.30;9.48;;;;;;;1.25;55.03;100206.97;4335458;33;20147;-83
2022/12/18 04:21:37;;;;;;;26.35;9.43;;;;;;;1.41;54.71;100205.31;4321858;33;20154;-83
2022/12/18 04:24:02;;;;;;;25.40;9.10;;;;;;;1.35;54.73;100204.44;4335287;33;20075;-83
2022/12/18 04:26:28;;;;;;;25.58;8.82;;;;;;;0.87;56.03;100210.16;4334064;33;20130;-83
2022/12/18 04:28:53;;;;;;;28.23;9.65;;;;;;;0.67;56.55;100215.19;4335211;33;20096;-83
2022/12/18 04:31:19;;;;;;;28.30;9.43;;;;;;;0.98;55.85;100214.59;4335119;33;20370;-83
2022/12/18 04:33:44;;;;;;;26.37;8.95;;;;;;;1.10;55.59;100218.09;4335154;33;20332;-83
2022/12/18 04:36:12;;;;;;;25.00;9.27;;;;;;;1.25;55.38;100217.34;4335166;33;20092;-83
2022/12/18 04:38:37;;;;;;;24.52;8.95;;;;;;;1.19;55.57;100218.16;4335199;33;20553;-83
2022/12/18 04:41:03;;;;;;;27.87;10.23;;;;;;;1.29;55.50;100235.53;4335040;33;20072;-83
2022/12/18 04:43:28;;;;;;;29.35;10.68;;;;;;;0.47;56.05;100235.75;4335108;33;20102;-83
2022/12/18 04:45:53;;;;;;;25.45;9.27;;;;;;;0.35;56.58;100236.50;4334942;33;20076;-83
2022/12/18 04:48:20;;;;;;;25.88;8.85;;;;;;;0.94;55.34;100238.75;4334325;33;20083;-83
2022/12/18 04:50:46;;;;;;;28.40;8.32;;;;;;;1.16;55.11;100246.72;4321837;33;20092;-82
2022/12/18 04:53:12;;;;;;;21.42;7.37;;;;;;;1.24;55.15;100249.38;4333721;33;20103;-83
2022/12/18 04:55:37;;;;;;;26.92;9.30;;;;;;;1.28;55.37;100251.97;4335112;33;20119;-83
2022/12/18 04:58:02;;;;;;;28.95;9.75;;;;;;;1.00;56.18;100263.00;4333560;33;20449;-83
2022/12/18 05:00:28;;;;;;;24.05;8.80;;;;;;;0.73;56.28;100259.31;4333982;33;20107;-83
2022/12/18 05:02:53;;;;;;;26.90;9.02;;;;;;;0.69;56.53;100263.59;4335022;33;20110;-81
2022/12/18 05:05:19;;;;;;;30.52;9.65;;;;;;;0.03;58.56;100267.25;4333885;33;20492;-79
2022/12/18 05:07:44;;;;;;;28.05;9.10;;;;;;;0.67;57.21;100265.31;4333774;33;20190;-81
2022/12/18 05:10:10;;;;;;;24.55;8.18;;;;;;;0.90;56.40;100264.66;4334969;33;20106;-82
2022/12/18 05:12:57;;;;;;;26.40;8.10;;;;;;;1.08;56.09;100256.16;4334814;33;20083;-82
2022/12/18 05:15:20;;;;;;;23.52;8.15;;;;;;;1.20;56.04;100268.34;4335114;33;20103;-82
2022/12/18 05:17:46;;;;;;;25.65;8.57;;;;;;;1.22;56.04;100270.13;4335168;33;20447;-82
2022/12/18 05:20:11;;;;;;;25.67;8.60;;;;;;;1.23;56.12;100264.06;4335184;33;20102;-82
2022/12/18 05:22:36;;;;;;;24.23;8.55;;;;;;;1.12;56.86;100265.69;4335000;33;20092;-82
2022/12/18 05:25:02;;;;;;;30.00;9.93;;;;;;;1.22;56.72;100270.13;4334880;33;20096;-81
2022/12/18 05:27:27;;;;;;;26.05;8.32;;;;;;;1.30;56.70;100272.75;4335111;33;20080;-81
2022/12/18 05:29:53;;;;;;;24.55;9.40;;;;;;;1.33;56.80;100275.38;4335023;33;20155;-82
2022/12/18 05:32:18;;;;;;;23.87;7.68;;;;;;;1.38;57.05;100276.28;4334920;33;20084;-82
2022/12/18 05:34:44;;;;;;;24.75;8.35;;;;;;;1.37;57.10;100284.91;4334618;33;20114;-81
2022/12/18 05:37:09;;;;;;;30.10;9.52;;;;;;;1.41;57.15;100284.09;4334659;33;20440;-82
2022/12/18 05:39:34;;;;;;;24.05;9.10;;;;;;;1.34;57.33;100290.09;4334444;33;20119;-82
2022/12/18 05:42:00;;;;;;;29.92;9.65;;;;;;;1.39;57.31;100283.19;4333300;33;20084;-83
2022/12/18 05:44:25;;;;;;;26.10;8.88;;;;;;;1.37;57.47;100291.00;4334848;33;20372;-83
2022/12/18 05:46:50;;;;;;;29.50;9.93;;;;;;;1.30;57.85;100288.34;4334495;33;20087;-83
2022/12/18 05:49:16;;;;;;;27.83;9.48;;;;;;;1.45;57.59;100290.16;4334344;33;20088;-81
2022/12/18 05:51:41;;;;;;;29.92;9.80;;;;;;;1.50;57.43;100299.72;4334386;33;20088;-81
2022/12/18 05:54:06;;;;;;;28.92;8.73;;;;;;;1.39;57.50;100298.78;4333194;33;20158;-81
2022/12/18 05:56:32;;;;;;;27.17;9.25;;;;;;;1.45;57.54;100304.03;4334336;33;20091;-81
2022/12/18 05:58:57;;;;;;;28.10;9.13;;;;;;;1.55;57.28;100310.16;4333135;33;20423;-83
2022/12/18 06:01:26;;;;;;;28.60;9.63;;;;;;;1.53;57.25;100309.28;4334327;33;20076;-83
2022/12/18 06:03:51;;;;;;;27.75;9.95;;;;;;;1.46;57.33;100312.69;4334380;33;20092;-83
2022/12/18 06:06:18;;;;;;;27.73;10.10;;;;;;;1.51;57.35;100317.06;4334430;33;20358;-81
2022/12/18 06:08:44;;;;;;;29.37;10.18;;;;;;;1.50;57.38;100317.91;4334290;33;20171;-81
2022/12/18 06:11:10;;;;;;;29.70;9.88;;;;;;;1.47;57.20;100320.50;4332964;33;20079;-81
2022/12/18 06:13:35;;;;;;;28.70;9.50;;;;;;;1.12;57.68;100326.28;4333019;33;20461;-80
2022/12/18 06:16:07;;;;;;;29.50;9.70;;;;;;;1.12;57.53;100322.78;4334279;33;20369;-82
2022/12/18 06:18:33;;;;;;;31.27;9.93;;;;;;;0.21;59.00;100336.56;4333048;33;20139;-82
2022/12/18 06:20:59;;;;;;;32.63;10.63;;;;;;;0.64;58.15;100330.16;4320849;33;20079;-81
2022/12/18 06:23:25;;;;;;;27.52;9.93;;;;;;;0.62;57.87;100329.25;4320834;33;20160;-81
2022/12/18 06:25:51;;;;;;;31.33;10.52;;;;;;;0.05;58.92;100344.12;4332806;33;20091;-81
2022/12/18 06:28:17;;;;;;;26.83;9.60;;;;;;;0.32;58.16;100340.16;4320792;33;20091;-81
2022/12/18 06:30:46;;;;;;;31.20;10.18;;;;;;;0.58;57.64;100338.72;4334108;33;20119;-83
2022/12/18 06:33:12;;;;;;;28.12;9.98;;;;;;;0.72;57.41;100345.78;4320617;33;20565;-83
2022/12/18 06:35:37;;;;;;;25.23;9.02;;;;;;;0.95;56.93;100356.41;4334046;33;20100;-83
2022/12/18 06:38:03;;;;;;;30.02;10.00;;;;;;;1.07;56.76;100343.53;4333646;33;20080;-82
2022/12/18 06:40:29;;;;;;;27.62;9.57;;;;;;;1.17;56.70;100350.53;4332746;33;20147;-82
2022/12/18 06:42:54;;;;;;;24.25;9.10;;;;;;;1.18;56.86;100354.88;4332775;33;20475;-82
2022/12/18 06:45:19;;;;;;;25.77;9.60;;;;;;;1.22;56.97;100366.16;4333720;33;20110;-82
2022/12/18 06:47:45;;;;;;;27.48;9.73;;;;;;;1.28;57.11;100358.44;4320489;33;20446;-80
2022/12/18 06:50:11;;;;;;;30.23;9.73;;;;;;;1.41;57.17;100363.72;4333609;33;20425;-82
2022/12/18 06:52:36;;;;;;;26.73;10.82;;;;;;;1.47;57.25;100354.25;4333691;33;20152;-87
2022/12/18 06:55:02;;;;;;;26.60;8.85;;;;;;;1.54;57.34;100366.41;4320218;33;20146;-82
2022/12/18 06:57:28;;;;;;;24.40;8.50;;;;;;;1.62;57.54;100363.88;4332300;33;20154;-84
2022/12/18 06:59:53;;;;;;;28.45;10.23;;;;;;;1.67;57.61;100369.97;4333915;33;20084;-86
2022/12/18 07:02:21;;;;;;;27.92;8.43;;;;;;;1.76;57.61;100377.84;4333990;33;20181;-93
2022/12/18 07:04:50;;;;;;;27.60;9.13;;;;;;;1.84;57.71;100379.63;4332748;33;20160;-85
2022/12/18 07:07:16;;;;;;;26.62;9.38;;;;;;;1.77;57.43;100386.50;4333880;33;20083;-85
2022/12/18 07:09:41;;;;;;;24.33;8.63;;;;;;;1.57;57.67;100387.22;4333472;33;20165;-85
2022/12/18 07:12:07;;;;;;;25.90;9.13;;;;;;;1.78;57.25;100390.84;4333363;33;20159;-85
2022/12/18 07:14:33;;;;;;;25.02;8.45;;;;;;;1.92;56.87;100398.72;4335759;33;20113;-85
2022/12/18 07:16:58;;;;;;;25.80;9.30;;;;;;;2.00;56.60;100402.22;4322251;33;20083;-84
2022/12/18 07:19:24;;;;;;;24.27;8.63;;;;;;;1.73;56.15;100406.37;4332022;33;20147;-83
2022/12/18 07:21:50;;;;;;;23.38;8.68;;;;;;;1.69;55.60;100409.81;4334942;33;20126;-85
2022/12/18 07:24:15;;;;;;;23.35;8.05;;;;;;;1.70;54.67;100411.56;4335110;33;20115;-85
2022/12/18 07:26:40;;;;;;;25.58;7.90;;;;;;;1.49;54.70;100411.41;4335094;33;20087;-85
2022/12/18 07:29:06;;;;;;;24.85;7.43;;;;;;;1.67;54.03;100421.94;4335533;33;20084;-85
2022/12/18 07:31:31;;;;;;;29.42;9.45;;;;;;;1.85;53.61;100425.53;4335217;33;20471;-85
2022/12/18 07:33:57;;;;;;;25.40;9.43;;;;;;;1.58;53.85;100440.03;4335461;33;20092;-84
2022/12/18 07:36:22;;;;;;;21.52;8.52;;;;;;;1.07;54.56;100442.16;4322211;33;20108;-82
2022/12/18 07:38:48;;;;;;;26.98;8.40;;;;;;;1.90;52.45;100432.50;4335517;33;20114;-80
2022/12/18 07:41:14;;;;;;;27.42;8.45;;;;;;;2.01;52.28;100435.19;4335257;33;20437;-80
2022/12/18 07:43:41;;;;;;;24.23;8.75;;;;;;;1.48;53.26;100444.28;4335697;33;20095;-80
2022/12/18 07:46:07;;;;;;;26.65;8.75;;;;;;;1.55;53.55;100453.00;4334528;33;20092;-81
2022/12/18 07:48:33;;;;;;;26.95;8.52;;;;;;;1.98;52.94;100448.13;4334552;33;20490;-81
2022/12/18 07:51:03;;;;;;;29.17;9.10;;;;;;;2.06;52.95;100451.66;4335275;33;20092;-80
2022/12/18 07:53:29;;;;;;;29.08;9.80;;;;;;;1.77;53.01;100464.44;4322133;33;20240;-80
2022/12/18 07:55:57;;;;;;;31.73;10.68;;;;;;;1.77;53.12;100467.91;4321849;33;20357;-78
2022/12/18 07:58:23;;;;;;;30.37;10.30;;;;;;;1.65;53.72;100472.13;4321975;33;20411;-81
2022/12/18 08:00:49;;;;;;;32.13;10.30;;;;;;;2.03;52.71;100475.03;4335390;33;20096;-81
2022/12/18 08:03:14;;;;;;;25.88;10.05;;;;;;;2.05;51.40;100470.72;4335306;33;20428;-81
2022/12/18 08:05:40;;;;;;;26.15;10.02;;;;;;;2.14;50.80;100475.09;4321897;33;20092;-81
2022/12/18 08:08:05;;;;;;;26.83;9.10;;;;;;;1.98;51.02;100487.13;4335278;33;20441;-81
2022/12/18 08:10:30;;;;;;;25.67;9.23;;;;;;;1.63;51.82;100485.09;4334180;33;20122;-80
2022/12/18 08:12:56;;;;;;;25.67;9.48;;;;;;;1.57;51.65;100488.53;4333724;33;20103;-81
2022/12/18 08:15:21;;;;;;;27.90;9.65;;;;;;;1.56;51.89;100498.88;4335319;33;20080;-81
2022/12/18 08:17:47;;;;;;;24.55;8.93;;;;;;;1.99;51.20;100499.28;4335124;33;20114;-81
2022/12/18 08:20:14;;;;;;;27.80;9.52;;;;;;;2.24;51.14;100486.44;4335225;33;20115;-83
2022/12/18 08:22:41;;;;;;;28.80;11.07;;;;;;;2.34;51.33;100485.66;4334366;33;20115;-93
2022/12/18 08:25:06;;;;;;;25.65;10.38;;;;;;;2.48;51.50;100489.19;4335898;33;20095;-92
2022/12/18 08:27:32;;;;;;;31.60;10.75;;;;;;;2.60;51.19;100493.59;4335228;33;20419;-92
2022/12/18 08:29:57;;;;;;;31.42;11.35;;;;;;;2.42;51.27;100498.72;4335103;33;20092;-91
2022/12/18 08:32:23;;;;;;;27.23;10.63;;;;;;;2.65;50.95;100498.84;4321588;33;20342;-92
2022/12/18 08:34:49;;;;;;;28.05;9.57;;;;;;;2.72;51.04;100501.47;4335171;33;20096;-92
2022/12/18 08:37:14;;;;;;;27.58;10.73;;;;;;;2.81;50.99;100498.03;4334906;33;20083;-92
2022/12/18 08:39:39;;;;;;;30.35;11.15;;;;;;;2.87;50.67;100497.19;4335158;33;20157;-92
2022/12/18 08:44:49;;;;;;;37.03;12.05;;;;;;;2.73;50.89;100508.41;4335008;33;20177;-92
2022/12/18 08:47:14;;;;;;;34.33;13.15;;;;;;;2.87;50.89;100505.88;4334951;33;20087;-92
2022/12/18 08:49:40;;;;;;;31.67;11.82;;;;;;;2.97;51.09;100504.16;4334983;33;20508;-91
2022/12/18 08:52:05;;;;;;;32.65;12.30;;;;;;;3.04;51.10;100502.47;4333889;33;20115;-91
2022/12/18 08:54:31;;;;;;;30.70;11.63;;;;;;;3.08;50.99;100504.22;4321646;33;20103;-91
2022/12/18 08:56:56;;;;;;;34.03;12.10;;;;;;;3.18;50.80;100500.78;4334829;33;20084;-91
2022/12/18 08:59:23;;;;;;;31.42;12.65;;;;;;;3.19;50.93;100510.34;4334985;33;20126;-92
2022/12/18 09:01:48;;;;;;;32.65;12.57;;;;;;;3.26;51.09;100509.47;4335039;33;20092;-92
2022/12/18 09:04:13;;;;;;;39.17;13.13;;;;;;;3.34;51.28;100514.72;4335001;33;20139;-91
2022/12/18 09:06:39;;;;;;;33.88;12.43;;;;;;;3.35;51.34;100519.06;4334971;33;20436;-91
2022/12/18 09:09:05;;;;;;;39.05;14.68;;;;;;;3.04;51.58;100531.13;4334869;33;20122;-91
2022/12/18 09:11:31;;;;;;;40.20;14.43;;;;;;;3.24;51.12;100529.44;4334941;33;20092;-92
2022/12/18 09:13:57;;;;;;;35.70;14.48;;;;;;;3.26;51.21;100532.91;4321552;33;20104;-92
2022/12/18 09:16:25;;;;;;;38.30;14.60;;;;;;;3.30;51.34;100539.91;4334889;33;20515;-92
2022/12/18 09:18:51;;;;;;;37.63;14.43;;;;;;;3.11;51.79;100549.37;4321499;33;20115;-91
2022/12/18 09:21:18;;;;;;;37.33;15.13;;;;;;;3.24;51.47;100547.66;4309480;33;20103;-92
2022/12/18 09:23:48;;;;;;;38.20;15.70;;;;;;;3.35;51.12;100527.75;4334990;33;20166;-91
2022/12/18 09:26:14;;;;;;;44.30;16.27;;;;;;;3.46;51.12;100530.38;4321336;33;20080;-92
2022/12/18 09:28:39;;;;;;;43.03;17.12;;;;;;;3.50;51.35;100526.06;4321466;33;20134;-92
2022/12/18 09:31:08;;;;;;;46.03;18.75;;;;;;;3.26;51.92;100535.53;4334581;33;20385;-92
2022/12/18 09:33:37;;;;;;;43.40;16.83;;;;;;;3.37;51.64;100539.91;4334514;33;20100;-92
2022/12/18 09:36:07;;;;;;;46.58;19.20;;;;;;;3.48;51.42;100533.88;4321214;33;20411;-92
2022/12/18 09:38:33;;;;;;;47.15;18.15;;;;;;;3.59;51.31;100541.69;4334628;33;20187;-92
2022/12/18 09:41:13;;;;;;;49.35;19.45;;;;;;;3.65;51.30;100522.59;4309235;33;20171;-92
2022/12/18 09:43:48;;;;;;;47.47;17.92;;;;;;;3.68;51.35;100526.06;4334613;33;20104;-92
2022/12/18 09:46:26;;;;;;;49.58;18.83;;;;;;;3.73;51.27;100526.09;4321421;33;20126;-92
2022/12/18 09:48:54;;;;;;;46.70;18.40;;;;;;;3.80;51.24;100532.19;4321349;33;20107;-92
2022/12/18 09:51:42;;;;;;;45.53;17.52;;;;;;;3.87;50.86;100529.56;4334609;33;20178;-92
2022/12/18 09:54:14;;;;;;;47.28;18.45;;;;;;;3.93;50.68;100533.94;4334133;33;20107;-92
2022/12/18 09:56:43;;;;;;;46.78;19.55;;;;;;;3.97;50.54;100534.81;4321020;33;20380;-92
2022/12/18 09:59:23;;;;;;;43.05;16.90;;;;;;;4.00;50.42;100530.47;4321074;33;20125;-91
2022/12/18 10:01:48;;;;;;;42.72;17.85;;;;;;;4.01;50.21;100534.78;4334353;33;20125;-91
2022/12/18 10:04:13;;;;;;;42.30;17.35;;;;;;;3.95;50.00;100542.63;4334339;33;20453;-91
2022/12/18 10:07:06;;;;;;;42.08;18.48;;;;;;;4.02;49.73;100536.53;4320968;33;20472;-92
2022/12/18 10:10:03;;;;;;;44.85;17.95;;;;;;;4.03;49.81;100533.06;4321105;33;20126;-92
2022/12/18 10:12:44;;;;;;;44.85;18.80;;;;;;;3.54;50.45;100538.22;4334288;33;20076;-91
2022/12/18 10:15:33;;;;;;;42.88;17.33;;;;;;;3.93;49.93;100533.94;4320992;33;20113;-91
2022/12/18 10:18:11;;;;;;;45.28;18.17;;;;;;;3.96;50.25;100536.56;4320803;33;20544;-92
2022/12/18 10:20:49;;;;;;;45.80;19.25;;;;;;;3.85;50.41;100533.91;4333127;33;20103;-92
2022/12/18 10:23:24;;;;;;;43.53;17.70;;;;;;;3.99;50.17;100531.31;4320865;33;20166;-92
2022/12/18 10:25:52;;;;;;;43.87;17.08;;;;;;;4.01;50.28;100533.94;4320831;33;20091;-92
2022/12/18 10:28:18;;;;;;;44.72;19.80;;;;;;;4.12;50.31;100530.44;4334164;33;20084;-92
2022/12/18 10:30:44;;;;;;;45.78;18.92;;;;;;;4.04;50.14;100528.72;4320520;33;20673;-92
2022/12/18 10:33:18;;;;;;;42.65;18.10;;;;;;;4.14;49.93;100527.84;4320672;33;20146;-91
2022/12/18 10:35:44;;;;;;;46.10;19.58;;;;;;;4.08;49.55;100520.88;4320676;33;20121;-91
2022/12/18 10:38:16;;;;;;;46.13;19.42;;;;;;;3.69;50.46;100522.63;4334204;33;20076;-90
2022/12/18 10:40:48;;;;;;;49.40;19.17;;;;;;;4.17;49.81;100532.19;4334049;33;20437;-92
2022/12/18 10:43:16;;;;;;;45.10;18.65;;;;;;;4.33;49.48;100526.09;4333380;33;20435;-90
2022/12/18 10:45:42;;;;;;;46.42;18.05;;;;;;;4.37;49.47;100527.81;4320519;33;20467;-90
2022/12/18 10:48:21;;;;;;;43.50;18.15;;;;;;;4.45;49.15;100530.44;4334719;33;20455;-91
2022/12/18 10:50:48;;;;;;;47.17;19.50;;;;;;;4.51;49.20;100531.28;4334671;33;20131;-89
2022/12/18 10:53:23;;;;;;;44.78;17.00;;;;;;;4.53;49.22;100520.84;4322500;33;20167;-89
2022/12/18 10:55:52;;;;;;;41.90;16.85;;;;;;;4.26;49.07;100525.22;4335652;33;20114;-89
2022/12/18 10:58:44;;;;;;;43.30;17.83;;;;;;;4.52;48.73;100521.72;4322504;33;20091;-89
2022/12/18 11:01:15;;;;;;;44.13;16.87;;;;;;;4.55;48.68;100520.84;4309338;33;20173;-89
2022/12/18 11:04:00;;;;;;;43.85;17.85;;;;;;;4.60;48.65;100527.78;4322791;33;20084;-87
2022/12/18 11:06:26;;;;;;;38.03;16.50;;;;;;;4.63;48.79;100511.25;4322592;33;20114;-90
2022/12/18 11:09:02;;;;;;;39.05;16.33;;;;;;;4.65;48.86;100512.97;4334864;33;20095;-90
2022/12/18 11:11:27;;;;;;;35.78;14.80;;;;;;;4.73;48.53;100513.84;4334489;33;20155;-90
2022/12/18 11:14:03;;;;;;;39.65;15.93;;;;;;;4.79;47.97;100505.13;4334558;33;20126;-89
2022/12/18 11:16:33;;;;;;;34.45;13.25;;;;;;;4.78;47.91;100508.59;4335836;33;20498;-90
2022/12/18 11:19:22;;;;;;;34.88;14.63;;;;;;;4.82;47.54;100509.44;4334532;33;20153;-90
2022/12/18 11:21:47;;;;;;;36.20;14.23;;;;;;;4.85;47.43;100501.63;4335762;33;20118;-91
2022/12/18 11:24:28;;;;;;;43.95;17.73;;;;;;;4.84;47.44;100507.69;4320926;33;20151;-92
2022/12/18 11:26:55;;;;;;;46.65;18.12;;;;;;;4.80;47.12;100505.97;4315746;33;20143;-91
2022/12/18 11:29:31;;;;;;;44.20;18.17;;;;;;;4.02;49.34;100518.28;4334489;33;20389;-92
2022/12/18 11:32:14;;;;;;;44.80;18.27;;;;;;;4.61;48.52;100511.25;4335425;33;20123;-90
2022/12/18 11:34:42;;;;;;;45.97;18.45;;;;;;;4.72;48.39;100508.63;4335552;33;20456;-85